sensor_id;sensor_type;location;lat;lon;timestamp;P1;durP1;ratioP1;P2;durP2;ratioP2
14125;SDS011;7141;49.484;11.242;2022-08-01T00:01:56;4.83;;;3.73;;
14125;SDS011;7141;49.484;11.242;2022-08-01T00:04:22;3.93;;;3.53;;
14125;SDS011;7141;49.484;11.242;2022-08-01T00:06:48;4.57;;;4.07;;
14125;SDS011;7141;49.484;11.242;2022-08-01T00:09:14;5.47;;;3.63;;
14125;SDS011;7141;49.484;11.242;2022-08-01T00:11:40;4.73;;;3.70;;
14125;SDS011;7141;49.484;11.242;2022-08-01T00:14:07;5.63;;;3.80;;
14125;SDS011;7141;49.484;11.242;2022-08-01T00:16:34;5.03;;;4.50;;
14125;SDS011;7141;49.484;11.242;2022-08-01T00:19:00;9.63;;;4.73;;
14125;SDS011;7141;49.484;11.242;2022-08-01T00:21:26;6.57;;;4.30;;
14125;SDS011;7141;49.484;11.242;2022-08-01T00:23:52;5.03;;;4.40;;
14125;SDS011;7141;49.484;11.242;2022-08-01T00:26:18;5.87;;;4.40;;
14125;SDS011;7141;49.484;11.242;2022-08-01T00:28:44;5.83;;;4.33;;
14125;SDS011;7141;49.484;11.242;2022-08-01T00:31:10;5.80;;;4.90;;
14125;SDS011;7141;49.484;11.242;2022-08-01T00:33:36;5.73;;;4.30;;
14125;SDS011;7141;49.484;11.242;2022-08-01T00:36:02;5.20;;;4.70;;
14125;SDS011;7141;49.484;11.242;2022-08-01T00:38:28;5.10;;;4.10;;
14125;SDS011;7141;49.484;11.242;2022-08-01T00:40:54;5.13;;;4.53;;
14125;SDS011;7141;49.484;11.242;2022-08-01T00:43:20;4.50;;;3.90;;
14125;SDS011;7141;49.484;11.242;2022-08-01T00:45:46;4.83;;;4.33;;
14125;SDS011;7141;49.484;11.242;2022-08-01T00:48:12;9.13;;;4.23;;
14125;SDS011;7141;49.484;11.242;2022-08-01T00:50:38;4.97;;;4.40;;
14125;SDS011;7141;49.484;11.242;2022-08-01T00:53:04;4.50;;;4.10;;
14125;SDS011;7141;49.484;11.242;2022-08-01T00:55:30;5.80;;;4.00;;
14125;SDS011;7141;49.484;11.242;2022-08-01T00:57:57;5.10;;;3.90;;
14125;SDS011;7141;49.484;11.242;2022-08-01T01:00:23;6.73;;;3.97;;
14125;SDS011;7141;49.484;11.242;2022-08-01T01:02:49;5.97;;;4.23;;
14125;SDS011;7141;49.484;11.242;2022-08-01T01:05:16;4.53;;;4.00;;
14125;SDS011;7141;49.484;11.242;2022-08-01T01:10:21;6.73;;;4.80;;
14125;SDS011;7141;49.484;11.242;2022-08-01T01:15:22;6.10;;;4.03;;
14125;SDS011;7141;49.484;11.242;2022-08-01T01:20:18;4.53;;;4.13;;
14125;SDS011;7141;49.484;11.242;2022-08-01T01:30:53;4.50;;;4.07;;
14125;SDS011;7141;49.484;11.242;2022-08-01T01:33:21;4.33;;;3.73;;
14125;SDS011;7141;49.484;11.242;2022-08-01T01:35:49;8.77;;;4.47;;
14125;SDS011;7141;49.484;11.242;2022-08-01T01:38:18;7.83;;;4.93;;
14125;SDS011;7141;49.484;11.242;2022-08-01T01:40:45;4.93;;;4.10;;
14125;SDS011;7141;49.484;11.242;2022-08-01T01:43:12;7.07;;;4.50;;
14125;SDS011;7141;49.484;11.242;2022-08-01T01:45:38;6.20;;;5.03;;
14125;SDS011;7141;49.484;11.242;2022-08-01T01:48:05;6.97;;;4.27;;
14125;SDS011;7141;49.484;11.242;2022-08-01T01:50:31;5.33;;;4.83;;
14125;SDS011;7141;49.484;11.242;2022-08-01T01:52:58;8.27;;;4.90;;
14125;SDS011;7141;49.484;11.242;2022-08-01T01:55:25;7.53;;;5.17;;
14125;SDS011;7141;49.484;11.242;2022-08-01T01:57:51;5.30;;;4.57;;
14125;SDS011;7141;49.484;11.242;2022-08-01T02:00:18;6.60;;;4.37;;
14125;SDS011;7141;49.484;11.242;2022-08-01T02:02:44;6.93;;;4.43;;
14125;SDS011;7141;49.484;11.242;2022-08-01T02:05:11;4.87;;;4.37;;
14125;SDS011;7141;49.484;11.242;2022-08-01T02:07:38;7.60;;;4.73;;
14125;SDS011;7141;49.484;11.242;2022-08-01T02:10:05;5.00;;;4.50;;
14125;SDS011;7141;49.484;11.242;2022-08-01T02:12:32;7.10;;;4.40;;
14125;SDS011;7141;49.484;11.242;2022-08-01T02:14:59;6.23;;;4.50;;
14125;SDS011;7141;49.484;11.242;2022-08-01T02:17:25;4.43;;;4.07;;
14125;SDS011;7141;49.484;11.242;2022-08-01T02:19:52;4.87;;;4.37;;
14125;SDS011;7141;49.484;11.242;2022-08-01T02:22:21;4.70;;;4.30;;
14125;SDS011;7141;49.484;11.242;2022-08-01T02:27:23;9.73;;;4.93;;
14125;SDS011;7141;49.484;11.242;2022-08-01T02:29:52;4.63;;;4.23;;
14125;SDS011;7141;49.484;11.242;2022-08-01T02:32:20;5.23;;;4.20;;
14125;SDS011;7141;49.484;11.242;2022-08-01T02:34:49;5.47;;;4.40;;
14125;SDS011;7141;49.484;11.242;2022-08-01T02:37:16;6.03;;;4.40;;
14125;SDS011;7141;49.484;11.242;2022-08-01T02:39:43;4.47;;;3.97;;
14125;SDS011;7141;49.484;11.242;2022-08-01T02:42:10;6.87;;;4.43;;
14125;SDS011;7141;49.484;11.242;2022-08-01T02:44:37;5.10;;;4.60;;
14125;SDS011;7141;49.484;11.242;2022-08-01T02:47:05;4.87;;;4.33;;
14125;SDS011;7141;49.484;11.242;2022-08-01T02:49:49;6.87;;;4.37;;
14125;SDS011;7141;49.484;11.242;2022-08-01T02:52:17;4.70;;;4.20;;
14125;SDS011;7141;49.484;11.242;2022-08-01T02:54:45;5.30;;;4.80;;
14125;SDS011;7141;49.484;11.242;2022-08-01T02:57:11;5.23;;;4.57;;
14125;SDS011;7141;49.484;11.242;2022-08-01T02:59:38;5.43;;;4.60;;
14125;SDS011;7141;49.484;11.242;2022-08-01T03:02:04;7.57;;;4.33;;
14125;SDS011;7141;49.484;11.242;2022-08-01T03:04:32;6.00;;;4.97;;
14125;SDS011;7141;49.484;11.242;2022-08-01T03:06:58;5.67;;;5.03;;
14125;SDS011;7141;49.484;11.242;2022-08-01T03:09:26;11.53;;;8.00;;
14125;SDS011;7141;49.484;11.242;2022-08-01T03:11:52;17.47;;;9.67;;
14125;SDS011;7141;49.484;11.242;2022-08-01T03:14:21;11.77;;;8.73;;
14125;SDS011;7141;49.484;11.242;2022-08-01T03:16:49;8.90;;;6.43;;
14125;SDS011;7141;49.484;11.242;2022-08-01T03:19:17;6.33;;;5.70;;
14125;SDS011;7141;49.484;11.242;2022-08-01T03:21:43;6.80;;;5.63;;
14125;SDS011;7141;49.484;11.242;2022-08-01T03:24:10;6.97;;;5.67;;
14125;SDS011;7141;49.484;11.242;2022-08-01T03:26:38;6.93;;;5.27;;
14125;SDS011;7141;49.484;11.242;2022-08-01T03:29:05;5.97;;;4.67;;
14125;SDS011;7141;49.484;11.242;2022-08-01T03:31:31;5.60;;;5.03;;
14125;SDS011;7141;49.484;11.242;2022-08-01T03:33:58;6.67;;;4.60;;
14125;SDS011;7141;49.484;11.242;2022-08-01T03:36:25;6.10;;;4.63;;
14125;SDS011;7141;49.484;11.242;2022-08-01T03:38:52;7.77;;;5.17;;
14125;SDS011;7141;49.484;11.242;2022-08-01T03:41:20;8.57;;;4.80;;
14125;SDS011;7141;49.484;11.242;2022-08-01T03:43:48;6.70;;;4.57;;
14125;SDS011;7141;49.484;11.242;2022-08-01T03:46:19;8.63;;;5.13;;
14125;SDS011;7141;49.484;11.242;2022-08-01T03:48:49;6.03;;;4.87;;
14125;SDS011;7141;49.484;11.242;2022-08-01T03:51:16;5.40;;;4.90;;
14125;SDS011;7141;49.484;11.242;2022-08-01T03:53:43;5.87;;;4.97;;
14125;SDS011;7141;49.484;11.242;2022-08-01T03:56:10;6.90;;;5.70;;
14125;SDS011;7141;49.484;11.242;2022-08-01T03:58:38;6.17;;;5.13;;
14125;SDS011;7141;49.484;11.242;2022-08-01T04:01:05;5.60;;;4.70;;
14125;SDS011;7141;49.484;11.242;2022-08-01T04:03:31;7.80;;;5.23;;
14125;SDS011;7141;49.484;11.242;2022-08-01T04:05:58;5.90;;;4.83;;
14125;SDS011;7141;49.484;11.242;2022-08-01T04:08:33;8.43;;;5.10;;
14125;SDS011;7141;49.484;11.242;2022-08-01T04:10:59;6.97;;;5.70;;
14125;SDS011;7141;49.484;11.242;2022-08-01T04:13:25;9.57;;;5.47;;
14125;SDS011;7141;49.484;11.242;2022-08-01T04:15:51;6.37;;;4.93;;
14125;SDS011;7141;49.484;11.242;2022-08-01T04:18:18;6.30;;;5.33;;
14125;SDS011;7141;49.484;11.242;2022-08-01T04:20:46;8.80;;;5.00;;
14125;SDS011;7141;49.484;11.242;2022-08-01T04:23:12;5.23;;;4.73;;
14125;SDS011;7141;49.484;11.242;2022-08-01T04:25:39;5.67;;;4.90;;
14125;SDS011;7141;49.484;11.242;2022-08-01T04:28:07;8.70;;;5.03;;
14125;SDS011;7141;49.484;11.242;2022-08-01T04:30:36;6.63;;;4.60;;
14125;SDS011;7141;49.484;11.242;2022-08-01T04:33:04;6.63;;;4.17;;
14125;SDS011;7141;49.484;11.242;2022-08-01T04:35:30;6.13;;;4.80;;
14125;SDS011;7141;49.484;11.242;2022-08-01T04:37:57;6.57;;;4.73;;
14125;SDS011;7141;49.484;11.242;2022-08-01T04:40:26;6.30;;;4.93;;
14125;SDS011;7141;49.484;11.242;2022-08-01T04:42:52;6.33;;;4.60;;
14125;SDS011;7141;49.484;11.242;2022-08-01T04:45:18;5.63;;;4.63;;
14125;SDS011;7141;49.484;11.242;2022-08-01T04:47:45;6.03;;;4.53;;
14125;SDS011;7141;49.484;11.242;2022-08-01T04:50:12;6.60;;;4.83;;
14125;SDS011;7141;49.484;11.242;2022-08-01T04:52:39;6.57;;;4.97;;
14125;SDS011;7141;49.484;11.242;2022-08-01T04:55:07;6.83;;;5.10;;
14125;SDS011;7141;49.484;11.242;2022-08-01T04:57:34;4.83;;;4.40;;
14125;SDS011;7141;49.484;11.242;2022-08-01T05:00:02;6.60;;;4.50;;
14125;SDS011;7141;49.484;11.242;2022-08-01T05:02:28;4.93;;;4.50;;
14125;SDS011;7141;49.484;11.242;2022-08-01T05:04:55;4.60;;;4.13;;
14125;SDS011;7141;49.484;11.242;2022-08-01T05:07:21;6.17;;;5.00;;
14125;SDS011;7141;49.484;11.242;2022-08-01T05:09:47;5.40;;;4.10;;
14125;SDS011;7141;49.484;11.242;2022-08-01T05:12:13;9.80;;;4.67;;
14125;SDS011;7141;49.484;11.242;2022-08-01T05:14:39;7.80;;;4.03;;
14125;SDS011;7141;49.484;11.242;2022-08-01T05:17:05;6.80;;;4.33;;
14125;SDS011;7141;49.484;11.242;2022-08-01T05:19:32;6.03;;;4.07;;
14125;SDS011;7141;49.484;11.242;2022-08-01T05:21:59;7.83;;;4.40;;
14125;SDS011;7141;49.484;11.242;2022-08-01T05:24:26;6.07;;;4.47;;
14125;SDS011;7141;49.484;11.242;2022-08-01T05:26:53;7.73;;;4.70;;
14125;SDS011;7141;49.484;11.242;2022-08-01T05:29:19;9.90;;;4.67;;
14125;SDS011;7141;49.484;11.242;2022-08-01T05:31:45;8.37;;;5.13;;
14125;SDS011;7141;49.484;11.242;2022-08-01T05:34:11;10.10;;;5.20;;
14125;SDS011;7141;49.484;11.242;2022-08-01T05:36:37;9.50;;;5.20;;
14125;SDS011;7141;49.484;11.242;2022-08-01T05:39:04;9.43;;;6.13;;
14125;SDS011;7141;49.484;11.242;2022-08-01T05:41:30;10.67;;;6.93;;
14125;SDS011;7141;49.484;11.242;2022-08-01T05:43:56;13.37;;;6.73;;
14125;SDS011;7141;49.484;11.242;2022-08-01T05:46:22;12.83;;;7.40;;
14125;SDS011;7141;49.484;11.242;2022-08-01T05:48:48;20.40;;;8.90;;
14125;SDS011;7141;49.484;11.242;2022-08-01T05:51:14;18.47;;;8.50;;
14125;SDS011;7141;49.484;11.242;2022-08-01T05:53:40;15.17;;;8.77;;
14125;SDS011;7141;49.484;11.242;2022-08-01T05:56:06;24.23;;;11.00;;
14125;SDS011;7141;49.484;11.242;2022-08-01T05:58:32;14.60;;;7.77;;
14125;SDS011;7141;49.484;11.242;2022-08-01T06:00:58;14.97;;;7.90;;
14125;SDS011;7141;49.484;11.242;2022-08-01T06:03:24;7.67;;;5.27;;
14125;SDS011;7141;49.484;11.242;2022-08-01T06:05:51;6.13;;;4.13;;
14125;SDS011;7141;49.484;11.242;2022-08-01T06:08:18;6.97;;;5.00;;
14125;SDS011;7141;49.484;11.242;2022-08-01T06:10:44;6.77;;;3.60;;
14125;SDS011;7141;49.484;11.242;2022-08-01T06:13:10;5.37;;;4.07;;
14125;SDS011;7141;49.484;11.242;2022-08-01T06:15:36;7.00;;;3.83;;
14125;SDS011;7141;49.484;11.242;2022-08-01T06:18:02;4.43;;;2.80;;
14125;SDS011;7141;49.484;11.242;2022-08-01T06:20:28;3.60;;;3.13;;
14125;SDS011;7141;49.484;11.242;2022-08-01T06:22:54;3.00;;;2.70;;
14125;SDS011;7141;49.484;11.242;2022-08-01T06:25:20;5.73;;;3.17;;
14125;SDS011;7141;49.484;11.242;2022-08-01T06:27:46;4.20;;;2.80;;
14125;SDS011;7141;49.484;11.242;2022-08-01T06:30:12;3.13;;;2.53;;
14125;SDS011;7141;49.484;11.242;2022-08-01T06:32:38;5.00;;;2.53;;
14125;SDS011;7141;49.484;11.242;2022-08-01T06:35:04;3.03;;;2.40;;
14125;SDS011;7141;49.484;11.242;2022-08-01T06:37:31;4.60;;;2.60;;
14125;SDS011;7141;49.484;11.242;2022-08-01T06:40:05;9.33;;;2.90;;
14125;SDS011;7141;49.484;11.242;2022-08-01T06:42:31;3.77;;;2.50;;
14125;SDS011;7141;49.484;11.242;2022-08-01T06:45:01;3.97;;;2.57;;
14125;SDS011;7141;49.484;11.242;2022-08-01T06:47:27;3.50;;;2.60;;
14125;SDS011;7141;49.484;11.242;2022-08-01T06:49:53;3.90;;;2.77;;
14125;SDS011;7141;49.484;11.242;2022-08-01T06:52:19;3.10;;;2.43;;
14125;SDS011;7141;49.484;11.242;2022-08-01T06:54:45;3.03;;;2.70;;
14125;SDS011;7141;49.484;11.242;2022-08-01T06:57:11;2.83;;;2.20;;
14125;SDS011;7141;49.484;11.242;2022-08-01T06:59:37;5.07;;;2.27;;
14125;SDS011;7141;49.484;11.242;2022-08-01T07:02:03;4.20;;;2.43;;
14125;SDS011;7141;49.484;11.242;2022-08-01T07:04:29;3.63;;;1.97;;
14125;SDS011;7141;49.484;11.242;2022-08-01T07:06:55;3.13;;;2.30;;
14125;SDS011;7141;49.484;11.242;2022-08-01T07:09:21;3.03;;;2.27;;
14125;SDS011;7141;49.484;11.242;2022-08-01T07:11:47;2.97;;;2.20;;
14125;SDS011;7141;49.484;11.242;2022-08-01T07:14:15;4.80;;;2.67;;
14125;SDS011;7141;49.484;11.242;2022-08-01T07:16:41;3.10;;;1.93;;
14125;SDS011;7141;49.484;11.242;2022-08-01T07:19:07;3.73;;;2.23;;
14125;SDS011;7141;49.484;11.242;2022-08-01T07:21:33;3.20;;;2.20;;
14125;SDS011;7141;49.484;11.242;2022-08-01T07:23:59;4.13;;;1.93;;
14125;SDS011;7141;49.484;11.242;2022-08-01T07:26:25;3.53;;;2.30;;
14125;SDS011;7141;49.484;11.242;2022-08-01T07:28:52;4.33;;;2.10;;
14125;SDS011;7141;49.484;11.242;2022-08-01T07:31:18;4.37;;;2.03;;
14125;SDS011;7141;49.484;11.242;2022-08-01T07:33:44;1.90;;;1.77;;
14125;SDS011;7141;49.484;11.242;2022-08-01T07:36:10;3.90;;;1.83;;
14125;SDS011;7141;49.484;11.242;2022-08-01T07:38:36;2.60;;;2.07;;
14125;SDS011;7141;49.484;11.242;2022-08-01T07:41:03;2.53;;;2.00;;
14125;SDS011;7141;49.484;11.242;2022-08-01T07:43:29;4.37;;;2.37;;
14125;SDS011;7141;49.484;11.242;2022-08-01T07:45:55;3.77;;;2.03;;
14125;SDS011;7141;49.484;11.242;2022-08-01T07:48:20;3.97;;;1.97;;
14125;SDS011;7141;49.484;11.242;2022-08-01T07:50:49;3.00;;;1.90;;
14125;SDS011;7141;49.484;11.242;2022-08-01T07:53:15;4.17;;;2.17;;
14125;SDS011;7141;49.484;11.242;2022-08-01T07:55:41;4.00;;;1.90;;
14125;SDS011;7141;49.484;11.242;2022-08-01T07:58:08;7.93;;;2.30;;
14125;SDS011;7141;49.484;11.242;2022-08-01T08:00:34;3.13;;;2.10;;
14125;SDS011;7141;49.484;11.242;2022-08-01T08:03:00;4.03;;;1.90;;
14125;SDS011;7141;49.484;11.242;2022-08-01T08:05:26;3.13;;;1.90;;
14125;SDS011;7141;49.484;11.242;2022-08-01T08:07:52;1.97;;;1.77;;
14125;SDS011;7141;49.484;11.242;2022-08-01T08:10:18;3.10;;;1.97;;
14125;SDS011;7141;49.484;11.242;2022-08-01T08:12:44;6.50;;;2.17;;
14125;SDS011;7141;49.484;11.242;2022-08-01T08:15:11;1.90;;;1.70;;
14125;SDS011;7141;49.484;11.242;2022-08-01T08:17:38;2.70;;;2.10;;
14125;SDS011;7141;49.484;11.242;2022-08-01T08:20:07;6.47;;;2.20;;
14125;SDS011;7141;49.484;11.242;2022-08-01T08:22:37;3.20;;;1.77;;
14125;SDS011;7141;49.484;11.242;2022-08-01T08:25:03;5.03;;;1.93;;
14125;SDS011;7141;49.484;11.242;2022-08-01T08:27:32;2.60;;;1.90;;
14125;SDS011;7141;49.484;11.242;2022-08-01T08:29:58;4.17;;;1.80;;
14125;SDS011;7141;49.484;11.242;2022-08-01T08:32:24;3.67;;;2.00;;
14125;SDS011;7141;49.484;11.242;2022-08-01T08:34:50;2.40;;;2.10;;
14125;SDS011;7141;49.484;11.242;2022-08-01T08:37:16;3.37;;;1.93;;
14125;SDS011;7141;49.484;11.242;2022-08-01T08:39:42;3.07;;;2.03;;
14125;SDS011;7141;49.484;11.242;2022-08-01T08:42:09;2.37;;;1.80;;
14125;SDS011;7141;49.484;11.242;2022-08-01T08:44:35;2.70;;;1.80;;
14125;SDS011;7141;49.484;11.242;2022-08-01T08:47:03;1.90;;;1.70;;
14125;SDS011;7141;49.484;11.242;2022-08-01T08:49:34;3.67;;;2.00;;
14125;SDS011;7141;49.484;11.242;2022-08-01T08:52:01;2.17;;;1.80;;
14125;SDS011;7141;49.484;11.242;2022-08-01T08:54:28;1.73;;;1.63;;
14125;SDS011;7141;49.484;11.242;2022-08-01T08:56:55;3.50;;;1.50;;
14125;SDS011;7141;49.484;11.242;2022-08-01T08:59:21;2.77;;;1.90;;
14125;SDS011;7141;49.484;11.242;2022-08-01T09:01:49;3.13;;;1.80;;
14125;SDS011;7141;49.484;11.242;2022-08-01T09:04:15;4.27;;;1.90;;
14125;SDS011;7141;49.484;11.242;2022-08-01T09:06:42;5.73;;;1.67;;
14125;SDS011;7141;49.484;11.242;2022-08-01T09:09:08;4.00;;;1.60;;
14125;SDS011;7141;49.484;11.242;2022-08-01T09:11:40;3.07;;;1.97;;
14125;SDS011;7141;49.484;11.242;2022-08-01T09:14:13;3.37;;;2.27;;
14125;SDS011;7141;49.484;11.242;2022-08-01T09:16:41;2.53;;;1.40;;
14125;SDS011;7141;49.484;11.242;2022-08-01T09:21:33;2.17;;;1.30;;
14125;SDS011;7141;49.484;11.242;2022-08-01T09:23:59;2.23;;;1.67;;
14125;SDS011;7141;49.484;11.242;2022-08-01T09:26:31;2.53;;;1.20;;
14125;SDS011;7141;49.484;11.242;2022-08-01T09:28:58;3.23;;;1.40;;
14125;SDS011;7141;49.484;11.242;2022-08-01T09:31:24;3.67;;;1.40;;
14125;SDS011;7141;49.484;11.242;2022-08-01T09:33:58;2.67;;;1.80;;
14125;SDS011;7141;49.484;11.242;2022-08-01T09:39:12;3.40;;;1.67;;
14125;SDS011;7141;49.484;11.242;2022-08-01T09:41:38;3.03;;;1.37;;
14125;SDS011;7141;49.484;11.242;2022-08-01T09:44:04;5.83;;;2.20;;
14125;SDS011;7141;49.484;11.242;2022-08-01T09:46:31;2.67;;;1.60;;
14125;SDS011;7141;49.484;11.242;2022-08-01T09:49:02;1.50;;;1.40;;
14125;SDS011;7141;49.484;11.242;2022-08-01T09:53:54;3.37;;;1.67;;
14125;SDS011;7141;49.484;11.242;2022-08-01T09:56:21;2.03;;;1.83;;
14125;SDS011;7141;49.484;11.242;2022-08-01T09:58:57;1.67;;;1.50;;
14125;SDS011;7141;49.484;11.242;2022-08-01T10:01:23;2.47;;;1.70;;
14125;SDS011;7141;49.484;11.242;2022-08-01T10:06:31;2.27;;;1.70;;
14125;SDS011;7141;49.484;11.242;2022-08-01T10:08:57;2.17;;;1.60;;
14125;SDS011;7141;49.484;11.242;2022-08-01T10:11:23;1.90;;;1.60;;
14125;SDS011;7141;49.484;11.242;2022-08-01T10:13:50;3.27;;;1.53;;
14125;SDS011;7141;49.484;11.242;2022-08-01T10:16:16;1.37;;;1.27;;
14125;SDS011;7141;49.484;11.242;2022-08-01T10:18:42;3.65;;;1.40;;
14125;SDS011;7141;49.484;11.242;2022-08-01T10:21:09;3.43;;;1.60;;
14125;SDS011;7141;49.484;11.242;2022-08-01T10:23:36;1.97;;;1.60;;
14125;SDS011;7141;49.484;11.242;2022-08-01T10:26:02;1.30;;;1.20;;
14125;SDS011;7141;49.484;11.242;2022-08-01T10:28:30;1.33;;;1.23;;
14125;SDS011;7141;49.484;11.242;2022-08-01T10:30:57;2.05;;;1.60;;
14125;SDS011;7141;49.484;11.242;2022-08-01T10:33:23;3.20;;;1.60;;
14125;SDS011;7141;49.484;11.242;2022-08-01T10:35:52;3.90;;;1.30;;
14125;SDS011;7141;49.484;11.242;2022-08-01T10:38:18;1.90;;;1.53;;
14125;SDS011;7141;49.484;11.242;2022-08-01T10:40:45;3.20;;;1.30;;
14125;SDS011;7141;49.484;11.242;2022-08-01T10:43:12;2.90;;;1.40;;
14125;SDS011;7141;49.484;11.242;2022-08-01T10:45:39;2.35;;;1.20;;
14125;SDS011;7141;49.484;11.242;2022-08-01T10:48:09;2.97;;;1.30;;
14125;SDS011;7141;49.484;11.242;2022-08-01T10:50:45;1.45;;;1.30;;
14125;SDS011;7141;49.484;11.242;2022-08-01T10:53:13;2.50;;;1.37;;
14125;SDS011;7141;49.484;11.242;2022-08-01T10:58:19;1.50;;;1.40;;
14125;SDS011;7141;49.484;11.242;2022-08-01T11:00:46;2.13;;;1.63;;
14125;SDS011;7141;49.484;11.242;2022-08-01T11:03:12;2.47;;;1.50;;
14125;SDS011;7141;49.484;11.242;2022-08-01T11:05:38;1.90;;;1.37;;
14125;SDS011;7141;49.484;11.242;2022-08-01T11:08:10;1.97;;;1.27;;
14125;SDS011;7141;49.484;11.242;2022-08-01T11:10:40;2.13;;;1.40;;
14125;SDS011;7141;49.484;11.242;2022-08-01T11:13:09;8.77;;;1.50;;
14125;SDS011;7141;49.484;11.242;2022-08-01T11:15:39;2.17;;;1.40;;
14125;SDS011;7141;49.484;11.242;2022-08-01T11:20:59;2.40;;;1.43;;
14125;SDS011;7141;49.484;11.242;2022-08-01T11:23:26;1.80;;;1.30;;
14125;SDS011;7141;49.484;11.242;2022-08-01T11:28:19;2.07;;;1.40;;
14125;SDS011;7141;49.484;11.242;2022-08-01T11:33:12;2.58;;;1.92;;
14125;SDS011;7141;49.484;11.242;2022-08-01T11:38:24;3.25;;;1.50;;
14125;SDS011;7141;49.484;11.242;2022-08-01T11:57:01;1.70;;;1.20;;
14125;SDS011;7141;49.484;11.242;2022-08-01T11:59:27;2.33;;;1.30;;
14125;SDS011;7141;49.484;11.242;2022-08-01T12:01:53;3.13;;;1.50;;
14125;SDS011;7141;49.484;11.242;2022-08-01T12:04:19;1.50;;;1.40;;
14125;SDS011;7141;49.484;11.242;2022-08-01T12:06:46;1.60;;;1.40;;
14125;SDS011;7141;49.484;11.242;2022-08-01T12:09:16;3.63;;;1.60;;
14125;SDS011;7141;49.484;11.242;2022-08-01T12:11:42;2.03;;;1.40;;
14125;SDS011;7141;49.484;11.242;2022-08-01T12:14:08;2.83;;;1.30;;
14125;SDS011;7141;49.484;11.242;2022-08-01T12:16:34;2.87;;;1.60;;
14125;SDS011;7141;49.484;11.242;2022-08-01T12:19:00;2.58;;;1.40;;
14125;SDS011;7141;49.484;11.242;2022-08-01T12:21:26;1.80;;;1.30;;
14125;SDS011;7141;49.484;11.242;2022-08-01T12:24:01;2.20;;;1.30;;
14125;SDS011;7141;49.484;11.242;2022-08-01T12:26:40;3.00;;;1.42;;
14125;SDS011;7141;49.484;11.242;2022-08-01T12:29:07;4.20;;;1.30;;
14125;SDS011;7141;49.484;11.242;2022-08-01T12:31:35;3.55;;;1.38;;
14125;SDS011;7141;49.484;11.242;2022-08-01T12:36:46;2.33;;;1.58;;
14125;SDS011;7141;49.484;11.242;2022-08-01T12:39:12;2.45;;;1.50;;
14125;SDS011;7141;49.484;11.242;2022-08-01T12:41:38;3.47;;;2.03;;
14125;SDS011;7141;49.484;11.242;2022-08-01T12:44:12;1.67;;;1.40;;
14125;SDS011;7141;49.484;11.242;2022-08-01T12:46:39;1.98;;;1.67;;
14125;SDS011;7141;49.484;11.242;2022-08-01T12:49:05;1.70;;;1.60;;
14125;SDS011;7141;49.484;11.242;2022-08-01T12:51:31;1.88;;;1.73;;
14125;SDS011;7141;49.484;11.242;2022-08-01T12:54:00;1.97;;;1.77;;
14125;SDS011;7141;49.484;11.242;2022-08-01T12:56:32;2.20;;;1.83;;
14125;SDS011;7141;49.484;11.242;2022-08-01T12:58:59;3.05;;;1.85;;
14125;SDS011;7141;49.484;11.242;2022-08-01T13:01:26;1.97;;;1.80;;
14125;SDS011;7141;49.484;11.242;2022-08-01T13:04:01;2.25;;;1.80;;
14125;SDS011;7141;49.484;11.242;2022-08-01T13:06:31;2.73;;;1.70;;
14125;SDS011;7141;49.484;11.242;2022-08-01T13:09:09;2.13;;;1.93;;
14125;SDS011;7141;49.484;11.242;2022-08-01T13:11:37;2.50;;;1.80;;
14125;SDS011;7141;49.484;11.242;2022-08-01T13:14:03;1.77;;;1.63;;
14125;SDS011;7141;49.484;11.242;2022-08-01T13:16:29;4.10;;;1.88;;
14125;SDS011;7141;49.484;11.242;2022-08-01T13:18:55;2.63;;;1.90;;
14125;SDS011;7141;49.484;11.242;2022-08-01T13:21:25;2.95;;;1.50;;
14125;SDS011;7141;49.484;11.242;2022-08-01T13:24:11;1.88;;;1.48;;
14125;SDS011;7141;49.484;11.242;2022-08-01T13:29:23;2.45;;;1.75;;
14125;SDS011;7141;49.484;11.242;2022-08-01T13:31:54;2.88;;;1.40;;
14125;SDS011;7141;49.484;11.242;2022-08-01T13:34:29;2.03;;;1.58;;
14125;SDS011;7141;49.484;11.242;2022-08-01T13:36:55;2.22;;;1.95;;
14125;SDS011;7141;49.484;11.242;2022-08-01T13:39:21;2.58;;;1.92;;
14125;SDS011;7141;49.484;11.242;2022-08-01T13:42:09;1.95;;;1.75;;
14125;SDS011;7141;49.484;11.242;2022-08-01T13:44:36;1.73;;;1.63;;
14125;SDS011;7141;49.484;11.242;2022-08-01T13:47:02;2.53;;;1.83;;
14125;SDS011;7141;49.484;11.242;2022-08-01T13:49:29;1.90;;;1.80;;
14125;SDS011;7141;49.484;11.242;2022-08-01T13:51:55;2.63;;;1.80;;
14125;SDS011;7141;49.484;11.242;2022-08-01T13:54:21;1.80;;;1.70;;
14125;SDS011;7141;49.484;11.242;2022-08-01T13:56:48;3.88;;;1.95;;
14125;SDS011;7141;49.484;11.242;2022-08-01T13:59:14;1.77;;;1.60;;
14125;SDS011;7141;49.484;11.242;2022-08-01T14:01:40;1.67;;;1.58;;
14125;SDS011;7141;49.484;11.242;2022-08-01T14:04:06;2.65;;;1.70;;
14125;SDS011;7141;49.484;11.242;2022-08-01T14:06:33;3.35;;;1.55;;
14125;SDS011;7141;49.484;11.242;2022-08-01T14:09:00;1.70;;;1.60;;
14125;SDS011;7141;49.484;11.242;2022-08-01T14:11:26;1.65;;;1.55;;
14125;SDS011;7141;49.484;11.242;2022-08-01T14:13:52;2.03;;;1.27;;
14125;SDS011;7141;49.484;11.242;2022-08-01T14:16:18;1.63;;;1.52;;
14125;SDS011;7141;49.484;11.242;2022-08-01T14:18:44;2.28;;;1.40;;
14125;SDS011;7141;49.484;11.242;2022-08-01T14:21:10;1.75;;;1.50;;
14125;SDS011;7141;49.484;11.242;2022-08-01T14:23:36;1.45;;;1.35;;
14125;SDS011;7141;49.484;11.242;2022-08-01T14:26:03;1.60;;;1.50;;
14125;SDS011;7141;49.484;11.242;2022-08-01T14:28:29;1.60;;;1.40;;
14125;SDS011;7141;49.484;11.242;2022-08-01T14:30:55;2.38;;;1.33;;
14125;SDS011;7141;49.484;11.242;2022-08-01T14:33:21;2.55;;;1.55;;
14125;SDS011;7141;49.484;11.242;2022-08-01T14:35:48;2.72;;;1.55;;
14125;SDS011;7141;49.484;11.242;2022-08-01T14:38:14;3.33;;;1.50;;
14125;SDS011;7141;49.484;11.242;2022-08-01T14:40:40;1.40;;;1.30;;
14125;SDS011;7141;49.484;11.242;2022-08-01T14:43:06;2.15;;;1.52;;
14125;SDS011;7141;49.484;11.242;2022-08-01T14:45:32;2.03;;;1.60;;
14125;SDS011;7141;49.484;11.242;2022-08-01T14:47:58;1.40;;;1.30;;
14125;SDS011;7141;49.484;11.242;2022-08-01T14:50:24;4.00;;;1.40;;
14125;SDS011;7141;49.484;11.242;2022-08-01T14:52:53;1.75;;;1.65;;
14125;SDS011;7141;49.484;11.242;2022-08-01T14:55:19;2.55;;;1.50;;
14125;SDS011;7141;49.484;11.242;2022-08-01T14:57:48;3.50;;;1.50;;
14125;SDS011;7141;49.484;11.242;2022-08-01T15:00:14;2.05;;;1.40;;
14125;SDS011;7141;49.484;11.242;2022-08-01T15:02:40;2.35;;;1.45;;
14125;SDS011;7141;49.484;11.242;2022-08-01T15:05:07;2.95;;;1.48;;
14125;SDS011;7141;49.484;11.242;2022-08-01T15:07:33;1.40;;;1.30;;
14125;SDS011;7141;49.484;11.242;2022-08-01T15:09:59;4.10;;;1.50;;
14125;SDS011;7141;49.484;11.242;2022-08-01T15:12:25;1.50;;;1.38;;
14125;SDS011;7141;49.484;11.242;2022-08-01T15:14:51;2.83;;;1.33;;
14125;SDS011;7141;49.484;11.242;2022-08-01T15:17:21;1.40;;;1.30;;
14125;SDS011;7141;49.484;11.242;2022-08-01T15:19:49;1.80;;;1.40;;
14125;SDS011;7141;49.484;11.242;2022-08-01T15:22:15;1.10;;;1.10;;
14125;SDS011;7141;49.484;11.242;2022-08-01T15:24:42;1.23;;;1.20;;
14125;SDS011;7141;49.484;11.242;2022-08-01T15:27:08;2.05;;;1.20;;
14125;SDS011;7141;49.484;11.242;2022-08-01T15:29:35;1.83;;;1.63;;
14125;SDS011;7141;49.484;11.242;2022-08-01T15:32:01;1.70;;;1.60;;
14125;SDS011;7141;49.484;11.242;2022-08-01T15:34:28;5.00;;;1.90;;
14125;SDS011;7141;49.484;11.242;2022-08-01T15:36:54;2.08;;;1.50;;
14125;SDS011;7141;49.484;11.242;2022-08-01T15:39:20;2.63;;;1.77;;
14125;SDS011;7141;49.484;11.242;2022-08-01T15:41:46;3.72;;;1.85;;
14125;SDS011;7141;49.484;11.242;2022-08-01T15:44:12;2.60;;;1.80;;
14125;SDS011;7141;49.484;11.242;2022-08-01T15:46:38;2.67;;;1.50;;
14125;SDS011;7141;49.484;11.242;2022-08-01T15:49:05;2.88;;;1.85;;
14125;SDS011;7141;49.484;11.242;2022-08-01T15:51:31;2.88;;;1.65;;